KGEG/GEG METAR and TAF weather

Enter ICAO airport designator
Station Type Date Time Source
KGEG METAR 2019/10/14 05:53 UTC NOAA

KGEG 140553Z 00000KT 10SM FEW050 BKN080 07/03 A2993 RMK AO2 SLP141 60000 T00670028 10094 20067 53004


Station Type Date Time Source
KGEG Decoded METAR 2019/10/14 05:53 UTC NOAA

SPOKANE INTERNATIONAL AIRPORT , WA, United States (KGEG) 47-37N 117-32W 735M
Oct 14, 2019 - 01:53 AM EDT / 2019.10.14 0553 UTC
Wind: Calm:0
Visibility: 10 mile(s):0
Sky conditions: mostly cloudy
Temperature: 44.1 F (6.7 C)
Dew Point: 37.0 F (2.8 C)
Relative Humidity: 76%
Pressure (altimeter): 29.93 in. Hg (1013 hPa)
Pressure tendency: 0.01 inches (0.4 hPa) higher than three hours ago
ob: KGEG 140553Z 00000KT 10SM FEW050 BKN080 07/03 A2993 RMK AO2 SLP141 60000 T00670028 10094 20067 53004
cycle: 6

Station Type Date Time Source
KGEG TAF 2019/10/14 06:30 UTC NOAA

TAF KGEG 140527Z 1406/1506 VRB02KT P6SM FEW050 OVC070
FM141500 19004KT P6SM SCT040 SCT150
FM142300 04004KT P6SM SCT120

Example: see airport list